createdAt,value
2022-07-26T00:00:17.063Z,15.90
2022-07-26T00:02:47.526Z,15.90
2022-07-26T00:05:18.242Z,15.90
2022-07-26T00:07:48.040Z,15.90
2022-07-26T00:10:17.461Z,15.80
2022-07-26T00:12:48.194Z,15.80
2022-07-26T00:15:17.394Z,15.80
2022-07-26T00:17:46.676Z,15.80
2022-07-26T00:20:15.961Z,15.80
2022-07-26T00:22:45.259Z,15.80
2022-07-26T00:25:14.739Z,15.80
2022-07-26T00:27:44.139Z,15.80
2022-07-26T00:30:16.639Z,15.80
2022-07-26T00:32:46.239Z,15.80
2022-07-26T00:35:15.939Z,15.90
2022-07-26T00:37:45.260Z,15.90
2022-07-26T00:40:16.029Z,15.80
2022-07-26T00:42:45.921Z,15.80
2022-07-26T00:45:17.927Z,15.80
2022-07-26T00:47:47.571Z,15.80
2022-07-26T00:50:18.959Z,15.80
2022-07-26T00:52:51.056Z,15.80
2022-07-26T00:55:21.499Z,15.80
2022-07-26T00:57:50.840Z,15.80
2022-07-26T01:00:28.392Z,15.70
2022-07-26T01:02:58.970Z,15.70
2022-07-26T01:05:30.348Z,15.70
2022-07-26T01:08:00.311Z,15.70
2022-07-26T01:10:29.417Z,15.70
2022-07-26T01:12:58.745Z,15.60
2022-07-26T01:15:29.508Z,15.60
2022-07-26T01:17:58.861Z,15.60
2022-07-26T01:20:28.279Z,15.60
2022-07-26T01:22:59.056Z,15.60
2022-07-26T01:25:43.214Z,15.60
2022-07-26T01:28:19.486Z,15.60
2022-07-26T01:30:49.737Z,15.60
2022-07-26T01:33:19.068Z,15.60
2022-07-26T01:35:48.263Z,15.50
2022-07-26T01:38:19.851Z,15.50
2022-07-26T01:40:49.131Z,15.50
2022-07-26T01:43:18.463Z,15.50
2022-07-26T01:45:48.418Z,15.60
2022-07-26T01:48:17.883Z,15.60
2022-07-26T01:50:47.174Z,15.60
2022-07-26T01:53:18.023Z,15.60
2022-07-26T01:55:47.283Z,15.60
2022-07-26T01:58:16.605Z,15.70
2022-07-26T02:00:45.956Z,15.70
2022-07-26T02:03:15.253Z,15.70
2022-07-26T02:05:44.702Z,15.70
2022-07-26T02:08:14.324Z,15.70
2022-07-26T02:13:28.968Z,15.80
2022-07-26T02:15:59.234Z,15.70
2022-07-26T02:18:29.804Z,15.70
2022-07-26T02:20:59.741Z,15.70
2022-07-26T02:23:29.363Z,15.60
2022-07-26T02:26:01.748Z,15.60
2022-07-26T02:28:32.204Z,15.60
2022-07-26T02:31:01.338Z,15.60
2022-07-26T02:33:30.344Z,15.60
2022-07-26T02:35:59.364Z,15.60
2022-07-26T02:38:28.432Z,15.70
2022-07-26T02:40:57.403Z,15.60
2022-07-26T02:43:27.212Z,15.70
2022-07-26T02:46:01.941Z,15.70
2022-07-26T02:48:31.861Z,15.70
2022-07-26T02:51:00.962Z,15.70
2022-07-26T02:53:30.051Z,15.60
2022-07-26T02:55:59.049Z,15.70
2022-07-26T02:58:28.424Z,15.70
2022-07-26T03:00:59.026Z,15.70
2022-07-26T03:03:27.988Z,15.80
2022-07-26T03:05:57.003Z,15.80
2022-07-26T03:08:26.057Z,15.90
2022-07-26T03:10:55.086Z,16.00
2022-07-26T03:13:24.099Z,16.00
2022-07-26T03:15:53.221Z,16.10
2022-07-26T03:18:23.726Z,16.10
2022-07-26T03:20:52.874Z,16.20
2022-07-26T03:23:21.872Z,16.30
2022-07-26T03:25:50.804Z,16.40
2022-07-26T03:28:19.908Z,16.40
2022-07-26T03:30:48.991Z,16.60
2022-07-26T03:33:18.223Z,16.60
2022-07-26T03:35:48.611Z,16.70
2022-07-26T03:38:17.712Z,16.80
2022-07-26T03:40:46.764Z,16.90
2022-07-26T03:43:16.734Z,17.00
2022-07-26T03:45:46.437Z,17.10
2022-07-26T03:48:15.593Z,17.20
2022-07-26T03:50:44.568Z,17.20
2022-07-26T03:53:15.274Z,17.20
2022-07-26T03:56:01.387Z,17.10
2022-07-26T03:58:30.348Z,17.10
2022-07-26T04:00:59.311Z,17.10
2022-07-26T04:03:28.288Z,17.10
2022-07-26T04:05:57.880Z,17.10
2022-07-26T04:08:28.668Z,17.10
2022-07-26T04:10:57.870Z,17.10
2022-07-26T04:13:26.888Z,17.10
2022-07-26T04:15:56.091Z,17.20
2022-07-26T04:18:25.949Z,17.20
2022-07-26T04:20:54.998Z,17.30
2022-07-26T04:23:24.049Z,17.40
2022-07-26T04:25:54.517Z,17.50
2022-07-26T04:28:24.831Z,17.50
2022-07-26T04:30:54.000Z,17.60
2022-07-26T04:33:23.090Z,17.70
2022-07-26T04:35:52.058Z,17.80
2022-07-26T04:38:21.337Z,18.00
2022-07-26T04:40:51.566Z,18.10
2022-07-26T04:43:21.987Z,18.30
2022-07-26T04:45:50.896Z,18.40
2022-07-26T04:48:20.309Z,18.50
2022-07-26T04:50:49.298Z,18.60
2022-07-26T04:53:18.300Z,18.80
2022-07-26T04:55:48.219Z,18.90
2022-07-26T04:58:17.175Z,19.00
2022-07-26T05:01:09.553Z,19.00
2022-07-26T05:03:38.912Z,18.90
2022-07-26T05:06:08.201Z,18.90
2022-07-26T05:08:37.317Z,19.00
2022-07-26T05:11:06.227Z,19.20
2022-07-26T05:13:35.265Z,19.20
2022-07-26T05:16:11.799Z,19.30
2022-07-26T05:22:03.427Z,19.60
2022-07-26T05:24:32.590Z,19.70
2022-07-26T05:27:01.638Z,19.80
2022-07-26T05:29:30.657Z,19.80
2022-07-26T05:32:01.065Z,19.90
2022-07-26T05:34:30.156Z,20.00
2022-07-26T05:36:59.219Z,20.10
2022-07-26T05:39:28.699Z,20.20
2022-07-26T05:41:57.637Z,20.30
2022-07-26T05:44:26.637Z,20.40
2022-07-26T05:47:00.811Z,20.50
2022-07-26T05:49:39.798Z,20.50
2022-07-26T05:52:09.809Z,20.60
2022-07-26T05:54:39.167Z,20.90
2022-07-26T05:57:08.129Z,21.00
2022-07-26T05:59:37.266Z,21.10
2022-07-26T06:02:08.732Z,21.30
2022-07-26T06:04:38.247Z,21.50
2022-07-26T06:07:07.281Z,21.60
2022-07-26T06:09:36.230Z,21.60
2022-07-26T06:12:05.596Z,21.60
2022-07-26T06:14:34.775Z,21.70
2022-07-26T06:17:04.798Z,21.70
2022-07-26T06:19:36.437Z,21.80
2022-07-26T06:22:05.829Z,21.90
2022-07-26T06:24:34.738Z,22.00
2022-07-26T06:27:04.724Z,22.20
2022-07-26T06:29:34.644Z,22.20
2022-07-26T06:32:03.756Z,22.10
2022-07-26T06:34:32.779Z,22.10
2022-07-26T06:37:03.248Z,22.30
2022-07-26T06:39:32.627Z,22.50
2022-07-26T06:42:01.552Z,22.60
2022-07-26T06:44:30.538Z,22.60
2022-07-26T06:46:59.653Z,22.60
2022-07-26T06:49:28.635Z,22.70
2022-07-26T06:51:58.677Z,22.80
2022-07-26T06:54:29.107Z,22.90
2022-07-26T06:56:58.053Z,23.00
2022-07-26T06:59:26.977Z,23.20
2022-07-26T07:02:00.145Z,23.40
2022-07-26T07:04:30.425Z,23.60
2022-07-26T07:07:05.229Z,24.00
2022-07-26T07:09:37.928Z,24.50
2022-07-26T07:12:10.223Z,24.60
2022-07-26T07:14:39.679Z,24.70
2022-07-26T07:17:12.867Z,25.00
2022-07-26T07:19:42.955Z,25.50
2022-07-26T07:22:13.067Z,25.80
2022-07-26T07:24:46.755Z,26.00
2022-07-26T07:27:17.899Z,26.30
2022-07-26T07:29:46.943Z,26.40
2022-07-26T07:32:18.888Z,26.50
2022-07-26T07:34:49.458Z,26.40
2022-07-26T07:37:20.130Z,26.60
2022-07-26T07:39:51.296Z,26.60
2022-07-26T07:42:20.834Z,26.50
2022-07-26T07:44:50.452Z,27.10
2022-07-26T07:47:19.553Z,27.10
2022-07-26T07:49:48.435Z,27.30
2022-07-26T07:52:17.596Z,27.10
2022-07-26T07:54:47.133Z,27.30
2022-07-26T07:57:17.714Z,27.40
2022-07-26T07:59:46.756Z,28.10
2022-07-26T08:02:16.314Z,28.00
2022-07-26T08:04:45.423Z,28.20
2022-07-26T08:07:45.037Z,28.40
2022-07-26T08:10:14.164Z,28.80
2022-07-26T08:12:44.773Z,28.60
2022-07-26T08:15:14.579Z,28.30
2022-07-26T08:17:43.537Z,27.60
2022-07-26T08:20:15.932Z,27.30
2022-07-26T08:22:45.175Z,27.20
2022-07-26T08:25:14.297Z,27.10
2022-07-26T08:27:51.107Z,27.20
2022-07-26T08:30:31.705Z,26.60
2022-07-26T08:33:00.770Z,26.80
2022-07-26T08:35:31.007Z,26.50
2022-07-26T08:38:00.536Z,26.40
2022-07-26T08:40:29.479Z,26.40
2022-07-26T08:42:59.926Z,26.30
2022-07-26T08:45:30.770Z,26.30
2022-07-26T08:48:18.474Z,26.30
2022-07-26T08:50:48.267Z,26.30
2022-07-26T08:53:17.755Z,26.50
2022-07-26T08:58:41.073Z,26.80
2022-07-26T09:01:13.396Z,26.80
2022-07-26T09:03:43.041Z,26.80
2022-07-26T09:06:17.077Z,27.10
2022-07-26T09:08:47.058Z,27.30
2022-07-26T09:11:30.348Z,27.30
2022-07-26T09:14:02.580Z,27.00
2022-07-26T09:16:37.286Z,27.40
2022-07-26T09:19:19.614Z,27.40
2022-07-26T09:21:48.630Z,27.60
2022-07-26T09:24:32.928Z,28.10
2022-07-26T09:27:07.467Z,28.40
2022-07-26T09:29:49.762Z,28.40
2022-07-26T09:32:20.901Z,28.70
2022-07-26T09:34:53.719Z,29.00
2022-07-26T09:37:37.699Z,29.10
2022-07-26T09:40:08.902Z,29.60
2022-07-26T09:42:37.987Z,30.00
2022-07-26T09:45:18.299Z,30.10
2022-07-26T09:47:47.384Z,30.30
2022-07-26T09:50:18.868Z,30.40
2022-07-26T09:53:14.990Z,30.10
2022-07-26T09:55:58.649Z,30.20
2022-07-26T09:58:28.500Z,30.30
2022-07-26T10:01:02.338Z,30.60
2022-07-26T10:03:32.207Z,31.00
2022-07-26T10:06:02.067Z,31.00
2022-07-26T10:08:33.067Z,31.00
2022-07-26T10:11:07.227Z,31.40
2022-07-26T10:13:36.349Z,31.30
2022-07-26T10:16:07.930Z,31.30
2022-07-26T10:18:47.774Z,31.60
2022-07-26T10:21:23.713Z,31.80
2022-07-26T10:23:53.702Z,31.80
2022-07-26T10:26:43.253Z,31.90
2022-07-26T10:29:31.627Z,32.10
2022-07-26T10:32:21.890Z,31.90
2022-07-26T10:34:50.956Z,31.80
2022-07-26T10:37:28.472Z,31.90
2022-07-26T10:40:18.385Z,32.00
2022-07-26T10:42:47.790Z,31.60
2022-07-26T10:45:23.172Z,31.50
2022-07-26T10:48:19.057Z,31.40
2022-07-26T10:50:50.389Z,31.00
2022-07-26T10:53:22.390Z,30.50
2022-07-26T10:55:53.777Z,30.30
2022-07-26T10:58:23.558Z,30.30
2022-07-26T11:01:02.549Z,30.50
2022-07-26T11:03:40.427Z,30.60
2022-07-26T11:06:14.621Z,30.90
2022-07-26T11:08:47.896Z,31.20
2022-07-26T11:11:30.737Z,30.80
2022-07-26T11:14:08.361Z,30.60
2022-07-26T11:16:42.689Z,30.50
2022-07-26T11:19:17.802Z,30.50
2022-07-26T11:21:48.108Z,30.50
2022-07-26T11:24:17.219Z,30.20
2022-07-26T11:26:48.084Z,30.00
2022-07-26T11:29:37.926Z,29.80
2022-07-26T11:32:16.431Z,29.50
2022-07-26T11:34:48.057Z,29.40
2022-07-26T11:37:17.135Z,29.20
2022-07-26T11:39:46.176Z,29.00
2022-07-26T11:42:16.650Z,29.10
2022-07-26T11:44:46.415Z,29.20
2022-07-26T11:47:16.903Z,29.50
2022-07-26T11:49:52.052Z,29.70
2022-07-26T11:52:36.661Z,29.90
2022-07-26T11:55:06.229Z,30.10
2022-07-26T11:57:35.218Z,30.00
2022-07-26T12:00:04.773Z,29.80
2022-07-26T12:02:33.951Z,29.80
2022-07-26T12:05:19.151Z,29.90
2022-07-26T12:07:59.649Z,29.80
2022-07-26T12:10:29.418Z,29.70
2022-07-26T12:13:12.500Z,29.50
2022-07-26T12:15:49.265Z,29.30
2022-07-26T12:18:26.436Z,29.40
2022-07-26T12:21:05.220Z,29.60
2022-07-26T12:23:45.828Z,29.80
2022-07-26T12:26:22.288Z,30.10
2022-07-26T12:28:51.327Z,30.30
2022-07-26T12:31:28.181Z,30.40
2022-07-26T12:33:57.568Z,30.40
2022-07-26T12:36:29.779Z,30.40
2022-07-26T12:39:00.777Z,30.20
2022-07-26T12:41:34.989Z,30.00
2022-07-26T12:44:04.086Z,30.00
2022-07-26T12:46:34.854Z,29.70
2022-07-26T12:49:05.301Z,29.60
2022-07-26T12:51:36.107Z,29.50
2022-07-26T12:54:07.601Z,29.30
2022-07-26T12:56:36.710Z,29.20
2022-07-26T12:59:05.650Z,29.30
2022-07-26T13:01:35.079Z,29.50
2022-07-26T13:04:04.482Z,29.60
2022-07-26T13:06:34.976Z,29.40
2022-07-26T13:09:03.897Z,29.40
2022-07-26T13:11:33.434Z,29.30
2022-07-26T13:14:02.999Z,29.40
2022-07-26T13:16:32.119Z,29.20
2022-07-26T13:19:01.169Z,29.10
2022-07-26T13:21:33.564Z,29.00
2022-07-26T13:24:06.790Z,28.90
2022-07-26T13:26:37.928Z,28.80
2022-07-26T13:29:07.188Z,28.60
2022-07-26T13:31:36.377Z,28.30
2022-07-26T13:34:05.578Z,28.10
2022-07-26T13:36:34.767Z,28.00
2022-07-26T13:39:06.077Z,27.60
2022-07-26T13:41:35.778Z,27.30
2022-07-26T13:44:06.932Z,27.10
2022-07-26T13:46:36.473Z,27.00
2022-07-26T13:49:08.600Z,26.70
2022-07-26T13:51:56.986Z,26.60
2022-07-26T13:54:29.694Z,26.50
2022-07-26T13:56:59.685Z,26.50
2022-07-26T13:59:29.034Z,26.50
2022-07-26T14:01:58.403Z,26.40
2022-07-26T14:04:29.096Z,26.30
2022-07-26T14:06:58.409Z,26.30
2022-07-26T14:09:28.896Z,26.30
2022-07-26T14:11:57.974Z,26.20
2022-07-26T14:14:26.987Z,26.10
2022-07-26T14:16:56.132Z,26.20
2022-07-26T14:19:25.125Z,26.20
2022-07-26T14:21:59.726Z,25.90
2022-07-26T14:24:31.100Z,25.70
2022-07-26T14:27:02.822Z,25.90
2022-07-26T14:29:31.944Z,25.90
2022-07-26T14:32:01.119Z,25.90
2022-07-26T14:34:30.147Z,25.70
2022-07-26T14:36:59.133Z,25.90
2022-07-26T14:39:28.100Z,25.70
2022-07-26T14:41:59.650Z,25.70
2022-07-26T14:44:28.769Z,25.70
2022-07-26T14:46:57.744Z,25.80
2022-07-26T14:49:27.969Z,25.70
2022-07-26T14:51:57.220Z,25.50
2022-07-26T14:54:26.102Z,25.40
2022-07-26T14:56:55.723Z,25.50
2022-07-26T14:59:26.345Z,25.50
2022-07-26T15:01:55.541Z,25.60
2022-07-26T15:04:24.629Z,25.70
2022-07-26T15:06:53.905Z,25.80
2022-07-26T15:09:22.859Z,25.80
2022-07-26T15:11:51.861Z,25.80
2022-07-26T15:14:20.859Z,25.80
2022-07-26T15:16:51.507Z,25.70
2022-07-26T15:19:25.368Z,25.70
2022-07-26T15:21:56.190Z,25.60
2022-07-26T15:24:25.272Z,25.80
2022-07-26T15:26:54.480Z,25.80
2022-07-26T15:29:23.491Z,25.80
2022-07-26T15:31:53.982Z,25.30
2022-07-26T15:34:23.098Z,25.10
2022-07-26T15:36:52.500Z,24.90
2022-07-26T15:39:21.738Z,24.80
2022-07-26T15:41:51.039Z,24.50
2022-07-26T15:44:21.575Z,24.40
2022-07-26T15:46:53.533Z,24.40
2022-07-26T15:49:22.611Z,24.20
2022-07-26T15:51:51.915Z,24.20
2022-07-26T15:54:21.391Z,24.10
2022-07-26T15:56:50.554Z,23.80
2022-07-26T15:59:19.419Z,23.70
2022-07-26T16:01:48.452Z,23.40
2022-07-26T16:04:18.973Z,23.40
2022-07-26T16:06:48.610Z,23.30
2022-07-26T16:09:19.104Z,23.10
2022-07-26T16:11:49.077Z,22.90
2022-07-26T16:14:18.629Z,22.80
2022-07-26T16:16:47.721Z,22.60
2022-07-26T16:19:18.198Z,22.50
2022-07-26T16:21:47.378Z,22.40
2022-07-26T16:24:16.378Z,22.30
2022-07-26T16:26:47.738Z,22.30
2022-07-26T16:29:16.746Z,22.20
2022-07-26T16:31:46.168Z,22.10
2022-07-26T16:34:15.224Z,22.10
2022-07-26T16:36:45.698Z,22.20
2022-07-26T16:39:15.085Z,22.10
2022-07-26T16:41:44.580Z,21.90
2022-07-26T16:44:13.738Z,21.80
2022-07-26T16:46:42.736Z,21.70
2022-07-26T16:49:14.475Z,21.70
2022-07-26T16:51:45.255Z,21.40
2022-07-26T16:54:14.315Z,21.20
2022-07-26T16:56:43.381Z,21.10
2022-07-26T16:59:12.553Z,21.00
2022-07-26T17:01:41.838Z,20.80
2022-07-26T17:04:11.666Z,20.80
2022-07-26T17:06:40.582Z,20.70
2022-07-26T17:09:15.274Z,20.50
2022-07-26T17:11:44.691Z,20.30
2022-07-26T17:14:16.454Z,20.30
2022-07-26T17:16:45.566Z,20.30
2022-07-26T17:19:14.867Z,20.10
2022-07-26T17:21:43.786Z,20.00
2022-07-26T17:24:14.200Z,20.00
2022-07-26T17:26:43.142Z,20.00
2022-07-26T17:29:12.549Z,19.90
2022-07-26T17:31:41.743Z,19.90
2022-07-26T17:34:10.719Z,19.90
2022-07-26T17:36:40.049Z,19.80
2022-07-26T17:39:14.858Z,19.60
2022-07-26T17:41:49.399Z,19.60
2022-07-26T17:44:18.528Z,19.50
2022-07-26T17:46:47.621Z,19.50
2022-07-26T17:49:17.191Z,19.50
2022-07-26T17:51:46.428Z,19.50
2022-07-26T17:54:15.463Z,19.30
2022-07-26T17:56:46.187Z,19.30
2022-07-26T17:59:16.124Z,19.30
2022-07-26T18:01:50.572Z,19.10
2022-07-26T18:04:23.351Z,19.10
2022-07-26T18:06:52.679Z,19.00
2022-07-26T18:09:21.874Z,19.00
2022-07-26T18:11:52.259Z,18.80
2022-07-26T18:14:22.024Z,18.90
2022-07-26T18:16:53.934Z,18.80
2022-07-26T18:19:24.409Z,18.70
2022-07-26T18:21:53.946Z,18.70
2022-07-26T18:24:23.317Z,18.70
2022-07-26T18:26:54.057Z,18.70
2022-07-26T18:29:22.997Z,18.70
2022-07-26T18:31:52.114Z,18.70
2022-07-26T18:34:21.204Z,18.70
2022-07-26T18:36:50.225Z,18.60
2022-07-26T18:39:19.328Z,18.70
2022-07-26T18:41:48.416Z,18.60
2022-07-26T18:44:18.792Z,18.50
2022-07-26T18:46:47.911Z,18.50
2022-07-26T18:49:20.493Z,18.40
2022-07-26T18:51:50.550Z,18.40
2022-07-26T18:54:21.665Z,18.30
2022-07-26T18:56:50.699Z,18.30
2022-07-26T18:59:21.348Z,18.30
2022-07-26T19:01:50.439Z,18.30
2022-07-26T19:04:19.660Z,18.30
2022-07-26T19:06:51.108Z,18.30
2022-07-26T19:09:21.502Z,18.30
2022-07-26T19:11:50.617Z,18.30
2022-07-26T19:14:21.170Z,18.30
2022-07-26T19:16:50.856Z,18.30
2022-07-26T19:19:19.748Z,18.30
2022-07-26T19:21:49.663Z,18.30
2022-07-26T19:24:18.809Z,18.30
2022-07-26T19:26:50.508Z,18.40
2022-07-26T19:29:20.955Z,18.40
2022-07-26T19:31:50.228Z,18.40
2022-07-26T19:34:19.159Z,18.40
2022-07-26T19:36:48.164Z,18.30
2022-07-26T19:39:17.444Z,18.20
2022-07-26T19:41:48.122Z,18.20
2022-07-26T19:44:18.113Z,18.20
2022-07-26T19:46:51.953Z,18.30
2022-07-26T19:49:23.365Z,18.20
2022-07-26T19:51:53.522Z,18.20
2022-07-26T19:54:23.292Z,18.20
2022-07-26T19:56:52.324Z,18.10
2022-07-26T19:59:24.419Z,18.10
2022-07-26T20:01:58.468Z,18.00
2022-07-26T20:04:27.826Z,18.00
2022-07-26T20:06:56.787Z,18.10
2022-07-26T20:09:27.239Z,18.10
2022-07-26T20:11:56.200Z,18.10
2022-07-26T20:14:25.279Z,18.00
2022-07-26T20:16:57.294Z,18.00
2022-07-26T20:19:28.355Z,18.00
2022-07-26T20:21:59.077Z,18.00
2022-07-26T20:24:31.802Z,17.90
2022-07-26T20:27:01.041Z,18.00
2022-07-26T20:29:30.214Z,18.00
2022-07-26T20:32:00.664Z,18.00
2022-07-26T20:34:31.206Z,18.10
2022-07-26T20:37:00.150Z,18.00
2022-07-26T20:39:29.490Z,18.00
2022-07-26T20:41:58.759Z,18.00
2022-07-26T20:44:30.496Z,17.90
2022-07-26T20:47:02.220Z,17.80
2022-07-26T20:49:31.172Z,17.80
2022-07-26T20:52:00.206Z,17.80
2022-07-26T20:54:29.070Z,17.80
2022-07-26T20:56:58.140Z,17.80
2022-07-26T20:59:28.849Z,17.80
2022-07-26T21:01:57.845Z,17.80
2022-07-26T21:04:28.245Z,17.70
2022-07-26T21:06:57.610Z,17.80
2022-07-26T21:09:27.675Z,17.80
2022-07-26T21:11:56.648Z,17.80
2022-07-26T21:14:25.637Z,17.90
2022-07-26T21:16:54.656Z,17.80
2022-07-26T21:19:23.597Z,17.70
2022-07-26T21:21:55.035Z,17.80
2022-07-26T21:24:23.920Z,17.70
2022-07-26T21:26:52.922Z,17.80
2022-07-26T21:29:21.795Z,17.80
2022-07-26T21:31:50.776Z,17.80
2022-07-26T21:34:19.982Z,17.90
2022-07-26T21:36:49.150Z,17.90
2022-07-26T21:39:19.855Z,17.90
2022-07-26T21:41:49.458Z,17.90
2022-07-26T21:44:21.607Z,17.90
2022-07-26T21:46:53.113Z,18.00
2022-07-26T21:49:22.128Z,17.80
2022-07-26T21:51:51.410Z,17.70
2022-07-26T21:54:21.744Z,17.70
2022-07-26T21:56:50.744Z,17.80
2022-07-26T21:59:19.853Z,17.70
2022-07-26T22:02:43.785Z,17.70
2022-07-26T22:05:26.550Z,17.60
2022-07-26T22:07:55.689Z,17.70
2022-07-26T22:10:26.304Z,17.70
2022-07-26T22:12:55.418Z,17.60
2022-07-26T22:15:24.627Z,17.70
2022-07-26T22:21:34.340Z,17.70
2022-07-26T22:24:03.340Z,17.60
2022-07-26T22:29:40.134Z,17.70
2022-07-26T22:32:09.316Z,17.70
2022-07-26T22:34:38.257Z,17.70
2022-07-26T22:37:07.157Z,17.70
2022-07-26T22:39:36.110Z,17.70
2022-07-26T22:42:15.222Z,17.70
2022-07-26T22:44:45.191Z,17.70
2022-07-26T22:47:14.224Z,17.70
2022-07-26T22:49:43.240Z,17.60
2022-07-26T22:52:12.323Z,17.60
2022-07-26T22:54:41.264Z,17.50
2022-07-26T22:57:11.853Z,17.40
2022-07-26T22:59:40.764Z,17.40
2022-07-26T23:02:09.765Z,17.30
2022-07-26T23:04:38.864Z,17.40
2022-07-26T23:07:08.192Z,17.40
2022-07-26T23:09:38.018Z,17.40
2022-07-26T23:12:07.585Z,17.40
2022-07-26T23:14:38.029Z,17.40
2022-07-26T23:17:06.993Z,17.40
2022-07-26T23:19:36.065Z,17.30
2022-07-26T23:22:04.981Z,17.30
2022-07-26T23:24:33.991Z,17.30
2022-07-26T23:27:03.409Z,17.40
2022-07-26T23:29:32.632Z,17.40
2022-07-26T23:32:03.063Z,17.40
2022-07-26T23:34:31.893Z,17.40
2022-07-26T23:37:01.113Z,17.40
2022-07-26T23:39:30.417Z,17.40
2022-07-26T23:42:03.047Z,17.40
2022-07-26T23:44:32.722Z,17.40
2022-07-26T23:47:03.595Z,17.40
2022-07-26T23:49:32.968Z,17.40
2022-07-26T23:52:02.078Z,17.40
2022-07-26T23:54:30.991Z,17.40
2022-07-26T23:57:00.079Z,17.50
2022-07-26T23:59:29.042Z,17.50
